Pagina principale
METAR-TAF:

METAR-TAF

Aeroporti :

Oxford, Inghilterra

latitudine: 51-50-13N, longitudine: 1-19-12W, altezza: 82 m

Osservazione

Il bollettino è stato emesso 30 minuti fa, alle 05:50 UTC
Vento 12 kt da nord-est, variando fra nord e est/nord-est
Temperature 12°C
Umidità 88%
Pressione 1030 hPa
Visibilità 10 km o più
Nuvoloso ad un'altezza di 1100 ft

METAR: EGTK 270550Z 05012KT 010V070 9999 BKN011 12/10 Q1030

Ora: 07:20 (06:20 UTC)

Previsione

Il bollettino è stato emesso 24 minuti fa, alle 05:56 UTC
Previsione valida dal 27 alle 06 UTC al 27 alle 15 UTC
Vento 12 kt da nord-est
Visibilità 10 km o più
Nuvoloso ad un'altezza di 1100 ft
Evoluzione graduale
dal 27 alle 07 UTC al 27 alle 10 UTC
Visibilità 10 km o più
nessuna nube inferiore a 1500 m e nessun cumulonembo

TAF: EGTK 270556Z 2706/2715 05012KT 9999 BKN011 BECMG 2707/2710 CAVOK

Osservazioni e previsioni meteorologiche di più di 4000 aeroporti (messaggi METAR e TAF).

Le stazioni disponibili sono rappresentate dai dischi gialli e rossi sulla carta.

Puntare il mouse per vedere il nome della stazione.

Clicca sopra per visualizzare le osservazioni e previsioni meteorologiche.

Per cambiare la mappa : fare clic sui pulsanti verdi con una croce nera per ingrandire, il pulsante verde con un trattino per diminuire, o sulla freccia verde per le mappe adiacenti.


METAR-TAF: